sensor_id;sensor_type;location;lat;lon;timestamp;temperature;humidity
18998;DHT22;9632;51.018;4.284;2023-12-28T00:01:23;11.80;99.90
18998;DHT22;9632;51.018;4.284;2023-12-28T00:03:49;11.80;99.90
18998;DHT22;9632;51.018;4.284;2023-12-28T00:06:15;11.90;99.90
18998;DHT22;9632;51.018;4.284;2023-12-28T00:08:41;11.90;99.90
18998;DHT22;9632;51.018;4.284;2023-12-28T00:11:07;11.90;99.90
18998;DHT22;9632;51.018;4.284;2023-12-28T00:13:33;11.90;99.90
18998;DHT22;9632;51.018;4.284;2023-12-28T00:15:58;11.90;99.90
18998;DHT22;9632;51.018;4.284;2023-12-28T00:18:24;11.90;99.90
18998;DHT22;9632;51.018;4.284;2023-12-28T00:20:50;11.90;99.90
18998;DHT22;9632;51.018;4.284;2023-12-28T00:23:16;11.90;99.90
18998;DHT22;9632;51.018;4.284;2023-12-28T00:25:41;11.90;99.90
18998;DHT22;9632;51.018;4.284;2023-12-28T00:28:07;11.90;99.90
18998;DHT22;9632;51.018;4.284;2023-12-28T00:30:33;11.90;99.90
18998;DHT22;9632;51.018;4.284;2023-12-28T00:32:58;11.90;99.90
18998;DHT22;9632;51.018;4.284;2023-12-28T00:35:24;11.90;99.90
18998;DHT22;9632;51.018;4.284;2023-12-28T00:37:50;12.00;99.90
18998;DHT22;9632;51.018;4.284;2023-12-28T00:40:15;11.90;99.90
18998;DHT22;9632;51.018;4.284;2023-12-28T00:42:41;11.90;99.90
18998;DHT22;9632;51.018;4.284;2023-12-28T00:45:08;11.90;99.90
18998;DHT22;9632;51.018;4.284;2023-12-28T00:47:34;11.90;99.90
18998;DHT22;9632;51.018;4.284;2023-12-28T00:49:59;11.90;99.90
18998;DHT22;9632;51.018;4.284;2023-12-28T00:52:25;11.90;99.90
18998;DHT22;9632;51.018;4.284;2023-12-28T00:54:50;11.90;99.90
18998;DHT22;9632;51.018;4.284;2023-12-28T00:57:16;11.90;99.90
18998;DHT22;9632;51.018;4.284;2023-12-28T00:59:42;11.90;99.90
18998;DHT22;9632;51.018;4.284;2023-12-28T01:02:09;11.90;99.90
18998;DHT22;9632;51.018;4.284;2023-12-28T01:04:34;11.90;99.90
18998;DHT22;9632;51.018;4.284;2023-12-28T01:07:00;11.80;99.90
18998;DHT22;9632;51.018;4.284;2023-12-28T01:09:27;11.90;99.90
18998;DHT22;9632;51.018;4.284;2023-12-28T01:11:53;11.90;99.90
18998;DHT22;9632;51.018;4.284;2023-12-28T01:14:19;11.90;99.90
18998;DHT22;9632;51.018;4.284;2023-12-28T01:16:45;11.90;99.90
18998;DHT22;9632;51.018;4.284;2023-12-28T01:19:10;11.90;99.90
18998;DHT22;9632;51.018;4.284;2023-12-28T01:21:37;11.90;99.90
18998;DHT22;9632;51.018;4.284;2023-12-28T01:24:02;11.90;99.90
18998;DHT22;9632;51.018;4.284;2023-12-28T01:26:28;11.90;99.90
18998;DHT22;9632;51.018;4.284;2023-12-28T01:28:54;11.90;99.90
18998;DHT22;9632;51.018;4.284;2023-12-28T01:31:19;12.00;99.90
18998;DHT22;9632;51.018;4.284;2023-12-28T01:33:45;12.00;99.90
18998;DHT22;9632;51.018;4.284;2023-12-28T01:36:17;12.00;99.90
18998;DHT22;9632;51.018;4.284;2023-12-28T01:38:43;12.00;99.90
18998;DHT22;9632;51.018;4.284;2023-12-28T01:41:09;12.10;99.90
18998;DHT22;9632;51.018;4.284;2023-12-28T01:43:35;12.00;99.90
18998;DHT22;9632;51.018;4.284;2023-12-28T01:46:01;12.00;99.90
18998;DHT22;9632;51.018;4.284;2023-12-28T01:48:28;12.10;99.90
18998;DHT22;9632;51.018;4.284;2023-12-28T01:50:54;12.10;99.90
18998;DHT22;9632;51.018;4.284;2023-12-28T01:53:20;12.00;99.90
18998;DHT22;9632;51.018;4.284;2023-12-28T01:55:46;12.10;99.90
18998;DHT22;9632;51.018;4.284;2023-12-28T01:58:12;12.10;99.90
18998;DHT22;9632;51.018;4.284;2023-12-28T02:00:38;12.10;99.90
18998;DHT22;9632;51.018;4.284;2023-12-28T02:03:08;12.00;99.90
18998;DHT22;9632;51.018;4.284;2023-12-28T02:05:34;12.10;99.90
18998;DHT22;9632;51.018;4.284;2023-12-28T02:08:00;12.10;99.90
18998;DHT22;9632;51.018;4.284;2023-12-28T02:10:26;12.10;99.90
18998;DHT22;9632;51.018;4.284;2023-12-28T02:12:52;12.00;99.90
18998;DHT22;9632;51.018;4.284;2023-12-28T02:15:19;12.00;99.90
18998;DHT22;9632;51.018;4.284;2023-12-28T02:17:55;11.90;99.90
18998;DHT22;9632;51.018;4.284;2023-12-28T02:20:24;12.00;99.90
18998;DHT22;9632;51.018;4.284;2023-12-28T02:22:50;11.90;99.90
18998;DHT22;9632;51.018;4.284;2023-12-28T02:25:17;12.00;99.90
18998;DHT22;9632;51.018;4.284;2023-12-28T02:27:44;12.00;99.90
18998;DHT22;9632;51.018;4.284;2023-12-28T02:30:15;12.00;99.90
18998;DHT22;9632;51.018;4.284;2023-12-28T02:38:14;12.00;99.90
18998;DHT22;9632;51.018;4.284;2023-12-28T02:40:44;11.90;99.90
18998;DHT22;9632;51.018;4.284;2023-12-28T02:43:11;11.90;99.90
18998;DHT22;9632;51.018;4.284;2023-12-28T02:45:38;12.00;99.90
18998;DHT22;9632;51.018;4.284;2023-12-28T02:48:04;11.80;99.90
18998;DHT22;9632;51.018;4.284;2023-12-28T02:50:31;11.80;99.90
18998;DHT22;9632;51.018;4.284;2023-12-28T02:52:57;11.80;99.90
18998;DHT22;9632;51.018;4.284;2023-12-28T02:55:23;12.00;99.90
18998;DHT22;9632;51.018;4.284;2023-12-28T02:57:50;11.90;99.90
18998;DHT22;9632;51.018;4.284;2023-12-28T03:00:16;11.90;99.90
18998;DHT22;9632;51.018;4.284;2023-12-28T03:02:42;11.90;99.90
18998;DHT22;9632;51.018;4.284;2023-12-28T03:05:08;11.80;99.90
18998;DHT22;9632;51.018;4.284;2023-12-28T03:07:35;11.90;99.90
18998;DHT22;9632;51.018;4.284;2023-12-28T03:10:01;11.90;99.90
18998;DHT22;9632;51.018;4.284;2023-12-28T03:12:28;11.90;99.90
18998;DHT22;9632;51.018;4.284;2023-12-28T03:14:55;11.90;99.90
18998;DHT22;9632;51.018;4.284;2023-12-28T03:17:20;11.90;99.90
18998;DHT22;9632;51.018;4.284;2023-12-28T03:19:46;11.90;99.90
18998;DHT22;9632;51.018;4.284;2023-12-28T03:22:12;12.00;99.90
18998;DHT22;9632;51.018;4.284;2023-12-28T03:24:38;11.90;99.90
18998;DHT22;9632;51.018;4.284;2023-12-28T03:27:07;12.00;99.90
18998;DHT22;9632;51.018;4.284;2023-12-28T03:29:33;12.00;99.90
18998;DHT22;9632;51.018;4.284;2023-12-28T03:31:59;12.00;99.90
18998;DHT22;9632;51.018;4.284;2023-12-28T03:34:26;12.00;99.90
18998;DHT22;9632;51.018;4.284;2023-12-28T03:36:56;11.90;99.90
18998;DHT22;9632;51.018;4.284;2023-12-28T03:39:23;11.90;99.90
18998;DHT22;9632;51.018;4.284;2023-12-28T03:41:49;11.80;99.90
18998;DHT22;9632;51.018;4.284;2023-12-28T03:44:14;11.80;99.90
18998;DHT22;9632;51.018;4.284;2023-12-28T03:46:40;11.80;99.90
18998;DHT22;9632;51.018;4.284;2023-12-28T03:49:05;11.90;99.90
18998;DHT22;9632;51.018;4.284;2023-12-28T03:51:31;11.80;99.90
18998;DHT22;9632;51.018;4.284;2023-12-28T03:53:57;11.80;99.90
18998;DHT22;9632;51.018;4.284;2023-12-28T03:56:24;11.80;99.90
18998;DHT22;9632;51.018;4.284;2023-12-28T03:58:51;11.80;99.90
18998;DHT22;9632;51.018;4.284;2023-12-28T04:01:18;11.70;99.90
18998;DHT22;9632;51.018;4.284;2023-12-28T04:03:44;11.70;99.90
18998;DHT22;9632;51.018;4.284;2023-12-28T04:06:10;11.80;99.90
18998;DHT22;9632;51.018;4.284;2023-12-28T04:08:35;11.80;99.90
18998;DHT22;9632;51.018;4.284;2023-12-28T04:11:01;11.80;99.90
18998;DHT22;9632;51.018;4.284;2023-12-28T04:13:27;11.70;99.90
18998;DHT22;9632;51.018;4.284;2023-12-28T04:15:52;11.80;99.90
18998;DHT22;9632;51.018;4.284;2023-12-28T04:18:18;11.70;99.90
18998;DHT22;9632;51.018;4.284;2023-12-28T04:20:43;11.70;99.90
18998;DHT22;9632;51.018;4.284;2023-12-28T04:23:12;11.70;99.90
18998;DHT22;9632;51.018;4.284;2023-12-28T04:25:37;11.70;99.90
18998;DHT22;9632;51.018;4.284;2023-12-28T04:28:03;11.70;99.90
18998;DHT22;9632;51.018;4.284;2023-12-28T04:30:29;11.80;99.90
18998;DHT22;9632;51.018;4.284;2023-12-28T04:32:54;11.80;99.90
18998;DHT22;9632;51.018;4.284;2023-12-28T04:35:20;11.70;99.90
18998;DHT22;9632;51.018;4.284;2023-12-28T04:37:46;11.70;99.90
18998;DHT22;9632;51.018;4.284;2023-12-28T04:40:11;11.80;99.90
18998;DHT22;9632;51.018;4.284;2023-12-28T04:42:40;11.80;99.90
18998;DHT22;9632;51.018;4.284;2023-12-28T04:45:06;11.80;99.90
18998;DHT22;9632;51.018;4.284;2023-12-28T04:47:32;11.80;99.90
18998;DHT22;9632;51.018;4.284;2023-12-28T04:49:57;11.80;99.90
18998;DHT22;9632;51.018;4.284;2023-12-28T04:52:23;11.90;99.90
18998;DHT22;9632;51.018;4.284;2023-12-28T04:54:49;11.70;99.90
18998;DHT22;9632;51.018;4.284;2023-12-28T04:57:14;11.70;99.90
18998;DHT22;9632;51.018;4.284;2023-12-28T04:59:40;11.70;99.90
18998;DHT22;9632;51.018;4.284;2023-12-28T05:02:06;11.60;99.90
18998;DHT22;9632;51.018;4.284;2023-12-28T05:04:32;11.70;99.90
18998;DHT22;9632;51.018;4.284;2023-12-28T05:06:58;11.80;99.90
18998;DHT22;9632;51.018;4.284;2023-12-28T05:09:24;11.70;99.90
18998;DHT22;9632;51.018;4.284;2023-12-28T05:11:49;11.80;99.90
18998;DHT22;9632;51.018;4.284;2023-12-28T05:14:15;11.90;99.90
18998;DHT22;9632;51.018;4.284;2023-12-28T05:16:40;11.90;99.90
18998;DHT22;9632;51.018;4.284;2023-12-28T05:19:06;12.00;99.90
18998;DHT22;9632;51.018;4.284;2023-12-28T05:21:32;12.00;99.90
18998;DHT22;9632;51.018;4.284;2023-12-28T05:23:57;12.00;99.90
18998;DHT22;9632;51.018;4.284;2023-12-28T05:26:23;12.00;99.90
18998;DHT22;9632;51.018;4.284;2023-12-28T05:28:49;12.10;99.90
18998;DHT22;9632;51.018;4.284;2023-12-28T05:31:15;12.00;99.90
18998;DHT22;9632;51.018;4.284;2023-12-28T05:33:40;12.00;99.90
18998;DHT22;9632;51.018;4.284;2023-12-28T05:36:06;11.90;99.90
18998;DHT22;9632;51.018;4.284;2023-12-28T05:38:32;11.80;99.90
18998;DHT22;9632;51.018;4.284;2023-12-28T05:40:59;11.80;99.90
18998;DHT22;9632;51.018;4.284;2023-12-28T05:43:25;11.80;99.90
18998;DHT22;9632;51.018;4.284;2023-12-28T05:45:50;11.80;99.90
18998;DHT22;9632;51.018;4.284;2023-12-28T05:48:16;11.80;99.90
18998;DHT22;9632;51.018;4.284;2023-12-28T05:50:41;11.90;99.90
18998;DHT22;9632;51.018;4.284;2023-12-28T05:53:07;11.90;99.90
18998;DHT22;9632;51.018;4.284;2023-12-28T05:55:37;11.90;99.90
18998;DHT22;9632;51.018;4.284;2023-12-28T05:58:02;11.80;99.90
18998;DHT22;9632;51.018;4.284;2023-12-28T06:00:28;11.90;99.90
18998;DHT22;9632;51.018;4.284;2023-12-28T06:02:54;11.80;99.90
18998;DHT22;9632;51.018;4.284;2023-12-28T06:05:19;11.80;99.90
18998;DHT22;9632;51.018;4.284;2023-12-28T06:07:45;11.80;99.90
18998;DHT22;9632;51.018;4.284;2023-12-28T06:10:11;11.80;99.90
18998;DHT22;9632;51.018;4.284;2023-12-28T06:12:36;11.90;99.90
18998;DHT22;9632;51.018;4.284;2023-12-28T06:15:02;11.90;99.90
18998;DHT22;9632;51.018;4.284;2023-12-28T06:17:28;11.90;99.90
18998;DHT22;9632;51.018;4.284;2023-12-28T06:19:54;11.80;99.90
18998;DHT22;9632;51.018;4.284;2023-12-28T06:22:19;11.70;99.90
18998;DHT22;9632;51.018;4.284;2023-12-28T06:24:45;11.70;99.90
18998;DHT22;9632;51.018;4.284;2023-12-28T06:27:11;11.70;99.90
18998;DHT22;9632;51.018;4.284;2023-12-28T06:29:37;11.70;99.90
18998;DHT22;9632;51.018;4.284;2023-12-28T06:32:03;11.60;99.90
18998;DHT22;9632;51.018;4.284;2023-12-28T06:34:28;11.60;99.90
18998;DHT22;9632;51.018;4.284;2023-12-28T06:36:54;11.60;99.90
18998;DHT22;9632;51.018;4.284;2023-12-28T06:39:20;11.60;99.90
18998;DHT22;9632;51.018;4.284;2023-12-28T06:41:48;11.60;99.90
18998;DHT22;9632;51.018;4.284;2023-12-28T06:44:14;11.70;99.90
18998;DHT22;9632;51.018;4.284;2023-12-28T06:46:40;11.60;99.90
18998;DHT22;9632;51.018;4.284;2023-12-28T06:49:06;11.60;99.90
18998;DHT22;9632;51.018;4.284;2023-12-28T06:51:32;11.50;99.90
18998;DHT22;9632;51.018;4.284;2023-12-28T06:53:58;11.50;99.90
18998;DHT22;9632;51.018;4.284;2023-12-28T06:56:25;11.50;99.90
18998;DHT22;9632;51.018;4.284;2023-12-28T06:58:50;11.50;99.90
18998;DHT22;9632;51.018;4.284;2023-12-28T07:01:16;11.50;99.90
18998;DHT22;9632;51.018;4.284;2023-12-28T07:03:42;11.40;99.90
18998;DHT22;9632;51.018;4.284;2023-12-28T07:06:08;11.50;99.90
18998;DHT22;9632;51.018;4.284;2023-12-28T07:08:33;11.40;99.90
18998;DHT22;9632;51.018;4.284;2023-12-28T07:10:59;11.40;99.90
18998;DHT22;9632;51.018;4.284;2023-12-28T07:13:25;11.30;99.90
18998;DHT22;9632;51.018;4.284;2023-12-28T07:15:51;11.30;99.90
18998;DHT22;9632;51.018;4.284;2023-12-28T07:18:17;11.30;99.90
18998;DHT22;9632;51.018;4.284;2023-12-28T07:20:42;11.30;99.90
18998;DHT22;9632;51.018;4.284;2023-12-28T07:23:08;11.30;99.90
18998;DHT22;9632;51.018;4.284;2023-12-28T07:25:34;11.30;99.90
18998;DHT22;9632;51.018;4.284;2023-12-28T07:28:00;11.30;99.90
18998;DHT22;9632;51.018;4.284;2023-12-28T07:30:26;11.40;99.90
18998;DHT22;9632;51.018;4.284;2023-12-28T07:32:51;11.40;99.90
18998;DHT22;9632;51.018;4.284;2023-12-28T07:35:18;11.40;99.90
18998;DHT22;9632;51.018;4.284;2023-12-28T07:37:43;11.40;99.90
18998;DHT22;9632;51.018;4.284;2023-12-28T07:40:12;11.40;99.90
18998;DHT22;9632;51.018;4.284;2023-12-28T07:42:38;11.40;99.90
18998;DHT22;9632;51.018;4.284;2023-12-28T07:45:04;11.40;99.90
18998;DHT22;9632;51.018;4.284;2023-12-28T07:47:29;11.40;99.90
18998;DHT22;9632;51.018;4.284;2023-12-28T07:49:55;11.40;99.90
18998;DHT22;9632;51.018;4.284;2023-12-28T07:52:21;11.40;99.90
18998;DHT22;9632;51.018;4.284;2023-12-28T07:54:46;11.40;99.90
18998;DHT22;9632;51.018;4.284;2023-12-28T07:57:12;11.40;99.90
18998;DHT22;9632;51.018;4.284;2023-12-28T07:59:38;11.50;99.90
18998;DHT22;9632;51.018;4.284;2023-12-28T08:02:04;11.40;99.90
18998;DHT22;9632;51.018;4.284;2023-12-28T08:04:30;11.40;99.90
18998;DHT22;9632;51.018;4.284;2023-12-28T08:06:56;11.40;99.90
18998;DHT22;9632;51.018;4.284;2023-12-28T08:09:22;11.30;99.90
18998;DHT22;9632;51.018;4.284;2023-12-28T08:11:48;11.30;99.90
18998;DHT22;9632;51.018;4.284;2023-12-28T08:14:13;11.30;99.90
18998;DHT22;9632;51.018;4.284;2023-12-28T08:16:39;11.30;99.90
18998;DHT22;9632;51.018;4.284;2023-12-28T08:19:05;11.30;99.90
18998;DHT22;9632;51.018;4.284;2023-12-28T08:21:31;11.30;99.90
18998;DHT22;9632;51.018;4.284;2023-12-28T08:23:56;11.30;99.90
18998;DHT22;9632;51.018;4.284;2023-12-28T08:26:22;11.30;99.90
18998;DHT22;9632;51.018;4.284;2023-12-28T08:28:47;11.40;99.90
18998;DHT22;9632;51.018;4.284;2023-12-28T08:31:13;11.50;99.90
18998;DHT22;9632;51.018;4.284;2023-12-28T08:33:39;11.50;99.90
18998;DHT22;9632;51.018;4.284;2023-12-28T08:36:08;11.50;99.90
18998;DHT22;9632;51.018;4.284;2023-12-28T08:38:35;11.60;99.90
18998;DHT22;9632;51.018;4.284;2023-12-28T08:41:01;11.60;99.90
18998;DHT22;9632;51.018;4.284;2023-12-28T08:43:29;11.60;99.90
18998;DHT22;9632;51.018;4.284;2023-12-28T08:45:54;11.50;99.90
18998;DHT22;9632;51.018;4.284;2023-12-28T08:48:20;11.50;99.90
18998;DHT22;9632;51.018;4.284;2023-12-28T08:50:46;11.60;99.90
18998;DHT22;9632;51.018;4.284;2023-12-28T08:53:12;11.50;99.90
18998;DHT22;9632;51.018;4.284;2023-12-28T08:55:37;11.50;99.90
18998;DHT22;9632;51.018;4.284;2023-12-28T08:58:03;11.60;99.90
18998;DHT22;9632;51.018;4.284;2023-12-28T09:00:29;11.60;99.90
18998;DHT22;9632;51.018;4.284;2023-12-28T09:02:54;11.60;99.90
18998;DHT22;9632;51.018;4.284;2023-12-28T09:05:20;11.60;99.90
18998;DHT22;9632;51.018;4.284;2023-12-28T09:07:46;11.60;99.90
18998;DHT22;9632;51.018;4.284;2023-12-28T09:10:12;11.60;99.90
18998;DHT22;9632;51.018;4.284;2023-12-28T09:12:40;11.60;99.90
18998;DHT22;9632;51.018;4.284;2023-12-28T09:15:06;11.60;99.90
18998;DHT22;9632;51.018;4.284;2023-12-28T09:17:33;11.70;99.90
18998;DHT22;9632;51.018;4.284;2023-12-28T09:19:58;11.70;99.90
18998;DHT22;9632;51.018;4.284;2023-12-28T09:22:24;11.60;99.90
18998;DHT22;9632;51.018;4.284;2023-12-28T09:24:50;11.60;99.90
18998;DHT22;9632;51.018;4.284;2023-12-28T09:27:16;11.70;99.90
18998;DHT22;9632;51.018;4.284;2023-12-28T09:29:42;11.70;99.90
18998;DHT22;9632;51.018;4.284;2023-12-28T09:32:07;11.70;99.90
18998;DHT22;9632;51.018;4.284;2023-12-28T09:34:33;11.80;99.90
18998;DHT22;9632;51.018;4.284;2023-12-28T09:36:59;11.90;99.90
18998;DHT22;9632;51.018;4.284;2023-12-28T09:39:25;11.80;99.90
18998;DHT22;9632;51.018;4.284;2023-12-28T09:41:57;12.00;99.90
18998;DHT22;9632;51.018;4.284;2023-12-28T09:44:25;12.00;99.90
18998;DHT22;9632;51.018;4.284;2023-12-28T09:46:51;12.00;99.90
18998;DHT22;9632;51.018;4.284;2023-12-28T09:49:20;12.00;99.90
18998;DHT22;9632;51.018;4.284;2023-12-28T09:51:47;12.10;99.90
18998;DHT22;9632;51.018;4.284;2023-12-28T09:54:13;12.10;99.90
18998;DHT22;9632;51.018;4.284;2023-12-28T09:56:40;12.00;99.90
18998;DHT22;9632;51.018;4.284;2023-12-28T09:59:07;12.10;99.90
18998;DHT22;9632;51.018;4.284;2023-12-28T10:01:35;12.10;99.90
18998;DHT22;9632;51.018;4.284;2023-12-28T10:04:01;12.00;99.90
18998;DHT22;9632;51.018;4.284;2023-12-28T10:06:30;12.20;99.90
18998;DHT22;9632;51.018;4.284;2023-12-28T10:08:55;12.20;99.90
18998;DHT22;9632;51.018;4.284;2023-12-28T10:11:21;12.30;99.90
18998;DHT22;9632;51.018;4.284;2023-12-28T10:13:49;12.30;99.90
18998;DHT22;9632;51.018;4.284;2023-12-28T10:16:15;12.40;99.90
18998;DHT22;9632;51.018;4.284;2023-12-28T10:18:42;12.30;99.90
18998;DHT22;9632;51.018;4.284;2023-12-28T10:21:08;12.30;99.90
18998;DHT22;9632;51.018;4.284;2023-12-28T10:23:34;12.40;99.90
18998;DHT22;9632;51.018;4.284;2023-12-28T10:26:00;12.30;99.90
18998;DHT22;9632;51.018;4.284;2023-12-28T10:28:27;12.40;99.90
18998;DHT22;9632;51.018;4.284;2023-12-28T10:30:56;12.50;99.90
18998;DHT22;9632;51.018;4.284;2023-12-28T10:33:22;12.60;99.90
18998;DHT22;9632;51.018;4.284;2023-12-28T10:35:50;12.60;99.90
18998;DHT22;9632;51.018;4.284;2023-12-28T10:38:16;12.70;99.90
18998;DHT22;9632;51.018;4.284;2023-12-28T10:40:46;12.60;99.90
18998;DHT22;9632;51.018;4.284;2023-12-28T10:43:17;12.60;99.90
18998;DHT22;9632;51.018;4.284;2023-12-28T10:45:50;12.70;99.90
18998;DHT22;9632;51.018;4.284;2023-12-28T10:48:20;12.70;99.90
18998;DHT22;9632;51.018;4.284;2023-12-28T10:50:49;12.70;99.90
18998;DHT22;9632;51.018;4.284;2023-12-28T10:53:35;12.70;99.90
18998;DHT22;9632;51.018;4.284;2023-12-28T11:01:09;12.70;99.90
18998;DHT22;9632;51.018;4.284;2023-12-28T11:03:38;12.60;99.90
18998;DHT22;9632;51.018;4.284;2023-12-28T11:06:07;12.70;99.90
18998;DHT22;9632;51.018;4.284;2023-12-28T11:08:34;12.70;99.90
18998;DHT22;9632;51.018;4.284;2023-12-28T11:11:01;12.70;99.90
18998;DHT22;9632;51.018;4.284;2023-12-28T11:13:30;12.60;99.90
18998;DHT22;9632;51.018;4.284;2023-12-28T11:15:57;12.70;99.90
18998;DHT22;9632;51.018;4.284;2023-12-28T11:18:25;12.60;99.90
18998;DHT22;9632;51.018;4.284;2023-12-28T11:20:53;12.60;99.90
18998;DHT22;9632;51.018;4.284;2023-12-28T11:23:19;12.70;99.90
18998;DHT22;9632;51.018;4.284;2023-12-28T11:25:45;12.70;99.90
18998;DHT22;9632;51.018;4.284;2023-12-28T11:28:12;12.70;99.90
18998;DHT22;9632;51.018;4.284;2023-12-28T11:30:38;12.90;99.90
18998;DHT22;9632;51.018;4.284;2023-12-28T11:33:06;12.80;99.90
18998;DHT22;9632;51.018;4.284;2023-12-28T11:35:39;12.70;99.90
18998;DHT22;9632;51.018;4.284;2023-12-28T11:38:08;12.80;99.90
18998;DHT22;9632;51.018;4.284;2023-12-28T11:40:42;12.80;99.90
18998;DHT22;9632;51.018;4.284;2023-12-28T11:43:18;12.80;99.90
18998;DHT22;9632;51.018;4.284;2023-12-28T11:45:51;12.80;99.90
18998;DHT22;9632;51.018;4.284;2023-12-28T11:48:27;12.80;99.90
18998;DHT22;9632;51.018;4.284;2023-12-28T11:51:00;12.80;99.90
18998;DHT22;9632;51.018;4.284;2023-12-28T11:53:26;12.80;99.90
18998;DHT22;9632;51.018;4.284;2023-12-28T11:55:52;12.80;99.90
18998;DHT22;9632;51.018;4.284;2023-12-28T11:58:18;12.70;99.90
18998;DHT22;9632;51.018;4.284;2023-12-28T12:00:44;12.80;99.90
18998;DHT22;9632;51.018;4.284;2023-12-28T12:03:10;12.80;99.90
18998;DHT22;9632;51.018;4.284;2023-12-28T12:05:37;12.70;99.90
18998;DHT22;9632;51.018;4.284;2023-12-28T12:08:03;12.80;99.90
18998;DHT22;9632;51.018;4.284;2023-12-28T12:10:29;12.80;99.90
18998;DHT22;9632;51.018;4.284;2023-12-28T12:12:55;12.80;99.90
18998;DHT22;9632;51.018;4.284;2023-12-28T12:15:20;12.90;99.90
18998;DHT22;9632;51.018;4.284;2023-12-28T12:17:46;12.80;99.90
18998;DHT22;9632;51.018;4.284;2023-12-28T12:20:14;12.90;99.90
18998;DHT22;9632;51.018;4.284;2023-12-28T12:22:40;12.90;99.90
18998;DHT22;9632;51.018;4.284;2023-12-28T12:25:06;12.90;99.90
18998;DHT22;9632;51.018;4.284;2023-12-28T12:27:33;13.00;99.90
18998;DHT22;9632;51.018;4.284;2023-12-28T12:30:00;13.00;99.90
18998;DHT22;9632;51.018;4.284;2023-12-28T12:32:27;13.00;99.90
18998;DHT22;9632;51.018;4.284;2023-12-28T12:34:53;13.00;99.90
18998;DHT22;9632;51.018;4.284;2023-12-28T12:37:18;12.90;99.90
18998;DHT22;9632;51.018;4.284;2023-12-28T12:39:44;13.00;99.90
18998;DHT22;9632;51.018;4.284;2023-12-28T12:42:14;13.10;99.90
18998;DHT22;9632;51.018;4.284;2023-12-28T12:44:39;13.10;99.90
18998;DHT22;9632;51.018;4.284;2023-12-28T12:47:07;13.10;99.90
18998;DHT22;9632;51.018;4.284;2023-12-28T12:49:32;13.10;99.90
18998;DHT22;9632;51.018;4.284;2023-12-28T12:51:58;13.10;99.90
18998;DHT22;9632;51.018;4.284;2023-12-28T12:54:24;13.10;99.90
18998;DHT22;9632;51.018;4.284;2023-12-28T12:56:52;13.10;99.90
18998;DHT22;9632;51.018;4.284;2023-12-28T12:59:19;13.10;99.90
18998;DHT22;9632;51.018;4.284;2023-12-28T13:01:45;13.20;99.90
18998;DHT22;9632;51.018;4.284;2023-12-28T13:04:14;13.20;99.90
18998;DHT22;9632;51.018;4.284;2023-12-28T13:06:41;13.20;99.90
18998;DHT22;9632;51.018;4.284;2023-12-28T13:09:07;13.10;99.90
18998;DHT22;9632;51.018;4.284;2023-12-28T13:11:35;13.10;99.90
18998;DHT22;9632;51.018;4.284;2023-12-28T13:14:01;13.10;99.90
18998;DHT22;9632;51.018;4.284;2023-12-28T13:16:27;13.10;99.90
18998;DHT22;9632;51.018;4.284;2023-12-28T13:18:53;13.20;99.90
18998;DHT22;9632;51.018;4.284;2023-12-28T13:21:19;13.10;99.90
18998;DHT22;9632;51.018;4.284;2023-12-28T13:23:45;13.10;99.90
18998;DHT22;9632;51.018;4.284;2023-12-28T13:26:10;13.10;99.90
18998;DHT22;9632;51.018;4.284;2023-12-28T13:28:36;13.10;99.90
18998;DHT22;9632;51.018;4.284;2023-12-28T13:31:02;13.20;99.90
18998;DHT22;9632;51.018;4.284;2023-12-28T13:33:27;13.10;99.90
18998;DHT22;9632;51.018;4.284;2023-12-28T13:35:53;13.20;99.90
18998;DHT22;9632;51.018;4.284;2023-12-28T13:38:19;13.20;99.90
18998;DHT22;9632;51.018;4.284;2023-12-28T13:40:44;13.20;99.90
18998;DHT22;9632;51.018;4.284;2023-12-28T13:43:10;13.10;99.90
18998;DHT22;9632;51.018;4.284;2023-12-28T13:45:35;13.20;99.90
18998;DHT22;9632;51.018;4.284;2023-12-28T13:48:01;13.20;99.90
18998;DHT22;9632;51.018;4.284;2023-12-28T13:50:27;13.10;99.90
18998;DHT22;9632;51.018;4.284;2023-12-28T13:52:53;13.10;99.90
18998;DHT22;9632;51.018;4.284;2023-12-28T13:55:19;13.10;99.90
18998;DHT22;9632;51.018;4.284;2023-12-28T13:57:45;13.10;99.90
18998;DHT22;9632;51.018;4.284;2023-12-28T14:00:11;13.10;99.90
18998;DHT22;9632;51.018;4.284;2023-12-28T14:02:37;13.10;99.90
18998;DHT22;9632;51.018;4.284;2023-12-28T14:05:03;13.10;99.90
18998;DHT22;9632;51.018;4.284;2023-12-28T14:07:29;13.00;99.90
18998;DHT22;9632;51.018;4.284;2023-12-28T14:09:54;13.10;99.90
18998;DHT22;9632;51.018;4.284;2023-12-28T14:12:20;13.10;99.90
18998;DHT22;9632;51.018;4.284;2023-12-28T14:14:46;13.10;99.90
18998;DHT22;9632;51.018;4.284;2023-12-28T14:17:12;13.10;99.90
18998;DHT22;9632;51.018;4.284;2023-12-28T14:19:37;13.10;99.90
18998;DHT22;9632;51.018;4.284;2023-12-28T14:22:03;13.10;99.90
18998;DHT22;9632;51.018;4.284;2023-12-28T14:24:29;13.10;99.90
18998;DHT22;9632;51.018;4.284;2023-12-28T14:26:55;13.00;99.90
18998;DHT22;9632;51.018;4.284;2023-12-28T14:29:24;13.00;99.90
18998;DHT22;9632;51.018;4.284;2023-12-28T14:31:50;13.00;99.90
18998;DHT22;9632;51.018;4.284;2023-12-28T14:34:16;13.00;99.90
18998;DHT22;9632;51.018;4.284;2023-12-28T14:36:44;13.00;99.90
18998;DHT22;9632;51.018;4.284;2023-12-28T14:39:15;12.80;99.90
18998;DHT22;9632;51.018;4.284;2023-12-28T14:41:43;12.90;99.90
18998;DHT22;9632;51.018;4.284;2023-12-28T14:44:09;12.80;99.90
18998;DHT22;9632;51.018;4.284;2023-12-28T14:46:35;12.80;99.90
18998;DHT22;9632;51.018;4.284;2023-12-28T14:49:01;12.80;99.90
18998;DHT22;9632;51.018;4.284;2023-12-28T14:51:28;12.80;99.90
18998;DHT22;9632;51.018;4.284;2023-12-28T14:53:53;12.90;99.90
18998;DHT22;9632;51.018;4.284;2023-12-28T14:56:19;12.90;99.90
18998;DHT22;9632;51.018;4.284;2023-12-28T14:58:46;12.70;99.90
18998;DHT22;9632;51.018;4.284;2023-12-28T15:01:14;12.80;99.90
18998;DHT22;9632;51.018;4.284;2023-12-28T15:03:40;12.70;99.90
18998;DHT22;9632;51.018;4.284;2023-12-28T15:06:06;12.70;99.90
18998;DHT22;9632;51.018;4.284;2023-12-28T15:08:31;12.70;99.90
18998;DHT22;9632;51.018;4.284;2023-12-28T15:10:58;12.80;99.90
18998;DHT22;9632;51.018;4.284;2023-12-28T15:13:23;12.60;99.90
18998;DHT22;9632;51.018;4.284;2023-12-28T15:15:50;12.60;99.90
18998;DHT22;9632;51.018;4.284;2023-12-28T15:18:17;12.60;99.90
18998;DHT22;9632;51.018;4.284;2023-12-28T15:20:44;12.70;99.90
18998;DHT22;9632;51.018;4.284;2023-12-28T15:23:10;12.60;99.90
18998;DHT22;9632;51.018;4.284;2023-12-28T15:25:36;12.60;99.90
18998;DHT22;9632;51.018;4.284;2023-12-28T15:28:01;12.50;99.90
18998;DHT22;9632;51.018;4.284;2023-12-28T15:30:27;12.50;99.90
18998;DHT22;9632;51.018;4.284;2023-12-28T15:32:53;12.40;99.90
18998;DHT22;9632;51.018;4.284;2023-12-28T15:35:19;12.50;99.90
18998;DHT22;9632;51.018;4.284;2023-12-28T15:37:44;12.50;99.90
18998;DHT22;9632;51.018;4.284;2023-12-28T15:40:10;12.60;99.90
18998;DHT22;9632;51.018;4.284;2023-12-28T15:42:36;12.50;99.90
18998;DHT22;9632;51.018;4.284;2023-12-28T15:45:02;12.50;99.90
18998;DHT22;9632;51.018;4.284;2023-12-28T15:47:28;12.50;99.90
18998;DHT22;9632;51.018;4.284;2023-12-28T15:49:54;12.50;99.90